Tiempo atmosférico en la estación meteorológica de Mutriku, Gipuzkoa (150 m.)



Fecha
DESCASC
Temp. máxima en grados centígrados (hora)
DESCASC
Temp. mínima en grados centígrados (hora)
DESCASC
Temp. media en grados centígrados
DESCASC
Racha de viento máxima en m/sg (hora)
DESCASC
Velocidad máxima media en intervalos de 10 minutos(hora)
DESCASC
Precipitaciones diarias en mm
DESCASC
Precipitaciones de 00:00 a 06:00 en mm
DESCASC
Precipitaciones de 06:00 a 12:00 en mm
DESCASC
Precipitaciones de 12:00 a 18:00 en mm
DESCASC
Precipitaciones de 18:00 a 24:00 en mm
DESCASC
17-09-2020 27.7 (23:59) 20.4 (08:00) 24.1 6.67 (23:10) 3.61 (18:50) 0 0 0 0 0
16-09-2020 25.6 (16:20) 19.1 (07:40) 22.4 3.89 (14:20) 2.78 (17:00) 0 0 0 0 0
15-09-2020 28 (12:20) 20 (03:50) 24 7.5 (04:20) 5 (04:00) 0 0 0 0 0
14-09-2020 34.8 (15:20) 21.3 (00:00) 28 20.83 (01:20) 7.5 (01:00) 0 0 0 0 0
13-09-2020 30.6 (23:59) 18.3 (00:00) 24.4 11.67 (23:30) 4.72 (18:30) 0 0 0 0 0
12-09-2020 23.8 (17:10) 18.2 (00:00) 21 3.61 (15:40) 2.22 (15:40) 0 0 0 0 0
11-09-2020 24.2 (14:40) 18.2 (00:00) 21.2 4.44 (14:20) 2.78 (15:40) 0 0 0 0 0
10-09-2020 23.5 (15:30) 17.6 (00:00) 20.6 6.39 (03:20) 4.17 (06:20) 0 0 0 0 0
09-09-2020 23.6 (15:50) 17.6 (00:00) 20.6 4.44 (20:10) 2.5 (22:30) 0 0 0 0 0
08-09-2020 22.2 (18:10) 15.4 (00:00) 18.8 8.06 (02:20) 4.17 (02:50) 0 0 0 0 0
07-09-2020 21.1 (18:20) 15.1 (08:00) 18.1 8.61 (04:10) 4.44 (07:10) 0.2 0 0.2 0 0
06-09-2020 21.4 (15:40) 17.1 (00:00) 19.3 8.33 (17:00) 3.89 (22:30) 0 0 0 0 0
05-09-2020 23 (14:20) 18.6 (00:00) 20.8 7.5 (08:50) 4.17 (08:40) 0 0 0 0 0
04-09-2020 28.8 (16:50) 18.5 (00:00) 23.6 7.22 (16:00) 5.28 (16:00) 0 0 0 0 0
03-09-2020 25.3 (18:30) 15.8 (00:00) 20.5 5 (14:40) 3.06 (12:30) 0 0 0 0 0
02-09-2020 23.3 (15:00) 16.8 (00:00) 20 4.17 (05:50) 2.78 (05:50) 0 0 0 0 0
01-09-2020 22.8 (17:00) 16.2 (00:00) 19.5 4.17 (16:10) 1.94 (13:50) 0 0 0 0 0
31-08-2020 21.7 (17:20) 14.2 (00:00) 18 5.56 (14:50) 3.33 (13:40) 0 0 0 0 0
30-08-2020 19.5 (16:10) 12.7 (00:00) 16.1 11.11 (06:50) 6.94 (03:30) 8.2 1.6 4 2 0.6
29-08-2020 19.8 (17:40) 13.1 (00:00) 16.4 14.17 (06:20) 7.78 (07:00) 38.2 2 1.2 2 33
28-08-2020 21.3 (00:00) 15.5 (00:00) 18.4 13.61 (06:30) 7.78 (06:40) 3 1.4 0.4 0.6 0.6
27-08-2020 28.1 (12:50) 19.3 (00:00) 23.7 9.44 (17:10) 5.56 (17:10) 0 0 0 0 0
26-08-2020 26.2 (13:30) 20.2 (00:00) 23.2 5.56 (15:50) 3.61 (13:30) 0 0 0 0 0
25-08-2020 26.9 (10:50) 18.3 (00:00) 22.6 11.94 (12:30) 6.11 (12:30) 0 0 0 0 0
24-08-2020 24.5 (18:30) 17 (00:00) 20.8 6.67 (21:20) 3.89 (21:00) 0.6 0.2 0.4 0 0
23-08-2020 23.6 (13:50) 17.2 (00:00) 20.4 4.72 (15:30) 2.78 (04:30) 0 0 0 0 0
22-08-2020 23.4 (13:40) 18.3 (00:00) 20.8 6.39 (16:20) 2.78 (16:10) 0 0 0 0 0
21-08-2020 25.4 (04:40) 19.2 (00:00) 22.3 8.89 (05:10) 4.17 (05:10) 3.2 0 0 1 2.2

Gráficas

Temp. máximas Temp. mínimas Temp. medias Precipitaciones Rachas de viento máximas Velocidades máximas media en intervalos de 10 minutos

Datos horarios

Fecha y hora oficial Temperatura (ºC) Velocidad del viento (km/h) Dirección del viento Racha (km/h) Dirección de racha Precipitación (mm) Presión (hPa) Tendencia (hPa) Humedad (%)
2020-09-19 23:00:00 18.7 12 Oeste 26 Sudoeste 0 -- -- 73
2020-09-19 22:00:00 18.6 16 Oeste 34 Oeste 0 -- -- 76
2020-09-19 21:00:00 17.8 21 Sudoeste 41 Oeste 0 -- -- 84
2020-09-19 20:00:00 18.1 25 Oeste 41 Sudoeste 0 -- -- 83
2020-09-19 19:00:00 19.7 12 Oeste 23 Oeste 0 -- -- 77
2020-09-19 18:00:00 19.7 10 Oeste 20 Noroeste 0 -- -- 81
2020-09-19 17:00:00 20.7 3 Noroeste 14 Sudoeste 0 -- -- 78
2020-09-19 16:00:00 20.1 12 Sudoeste 27 Sudoeste 1.8 -- -- 81
2020-09-19 15:00:00 18.1 17 Sudoeste 26 Sudoeste 1.8 -- -- 82
2020-09-19 14:00:00 20.8 3 Noroeste 10 Oeste 0 -- -- 73
2020-09-19 13:00:00 21.2 9 Sudoeste 19 Oeste 0.2 -- -- 68
2020-09-19 12:00:00 22.9 5 Nordeste 16 Sur 0 -- -- 61
2020-09-19 11:00:00 21.8 4 Este 9 Sudeste 0 -- -- 63
2020-09-19 10:00:00 20 4 Nordeste 26 Sudoeste 0 -- -- 64
2020-09-19 09:00:00 19.3 13 Sur 28 Sur 0 -- -- 66
2020-09-19 08:00:00 18.8 7 Sudoeste 26 Sudoeste 0 -- -- 73
2020-09-19 07:00:00 19.2 8 Sudoeste 18 Sudoeste 0.2 -- -- 74
2020-09-19 06:00:00 20.7 5 Sur 20 Sudeste 0 -- -- 64
2020-09-19 05:00:00 20.6 6 Sur 26 Sur 0 -- -- 62
2020-09-19 04:00:00 20.3 4 Oeste 12 Sur 0 -- -- 63
2020-09-19 03:00:00 20.8 4 Sudeste 19 Este 0 -- -- 66
2020-09-19 02:00:00 20.7 8 Oeste 14 Sur 0 -- -- 70
2020-09-19 01:00:00 21.5 8 Oeste 13 Sudeste 0 -- -- 66
2020-09-19 00:00:00 21 5 Este 14 Sur 0 -- -- 69
2020-09-18 23:00:00 20.7 2 Sur 19 Sudeste 0 -- -- 71
2020-09-18 22:00:00 21 11 Este 26 Este 0 -- -- 72
2020-09-18 21:00:00 21.3 12 Este 21 Este 0 -- -- 71
2020-09-18 20:00:00 20.7 10 Sudeste 21 Sudeste 0 -- -- 79
2020-09-18 19:00:00 19.6 7 Sudeste 13 Oeste 0 -- -- 88
2020-09-18 18:00:00 18 4 Este 115 Sudoeste 18.6 -- -- 92
2020-09-18 17:00:00 25 10 Oeste 21 Sudoeste 0 -- -- 56
2020-09-18 16:00:00 26.9 5 Este 17 Oeste 0 -- -- 47
2020-09-18 15:00:00 25.3 5 Sudoeste 23 Sudeste 0 -- -- 52
2020-09-18 14:00:00 22.5 11 Sudoeste 24 Oeste 0.6 -- -- 62
2020-09-18 13:00:00 21.1 19 Sudoeste 62 Oeste 0.2 -- -- 75
2020-09-18 12:00:00 24.9 3 Oeste 9 Oeste 0 -- -- 56
2020-09-18 11:00:00 24 6 Sur 26 Este 0 -- -- 58
2020-09-18 10:00:00 23.5 16 Sudeste 32 Sudeste 0 -- -- 58
2020-09-18 09:00:00 22.8 8 Sudeste 31 Sudeste 0 -- -- 63
2020-09-18 08:00:00 22.6 11 Sur 41 Sur 0 -- -- 65
2020-09-18 07:00:00 23.1 17 Sur 48 Sur 0 -- -- 62
2020-09-18 06:00:00 24.8 15 Sur 45 Sur 0 -- -- 51
2020-09-18 05:00:00 25.1 11 Sur 26 Sur 0 -- -- 53
2020-09-18 04:00:00 25.7 7 Oeste 33 Sur 0 -- -- 54
2020-09-18 03:00:00 27.6 19 Sur 37 Sur 0 -- -- 43
2020-09-18 02:00:00 28 17 Sur 37 Sur 0 -- -- 40
2020-09-18 01:00:00 27.7 9 Sur 18 Sudoeste 0 -- -- 39
2020-09-18 00:00:00 27.7 8 Sudeste 24 Sudeste 0 -- -- 39
2020-09-17 23:00:00 26.6 9 Sudeste 19 Sudeste 0 -- -- 45
2020-09-17 22:00:00 26.6 6 Sur 9 Sur 0 -- -- 46
2020-09-17 21:00:00 25.3 5 Sudeste 8 Sudeste 0 -- -- 52
2020-09-17 20:00:00 25.1 5 Sudeste 20 Este 0 -- -- 66
2020-09-17 19:00:00 25.4 12 Sudeste 22 Este 0 -- -- 67
2020-09-17 18:00:00 27.2 5 Este 15 Este 0 -- -- 57
2020-09-17 17:00:00 26.4 9 Sudeste 17 Sudeste 0 -- -- 57
2020-09-17 16:00:00 25.3 10 Sudeste 17 Este 0 -- -- 70
2020-09-17 15:00:00 27.2 7 Este 14 Este 0 -- -- 65
2020-09-17 14:00:00 25.4 6 Este 10 Sudeste 0 -- -- 64
2020-09-17 13:00:00 24.6 5 Este 9 Este 0 -- -- 74
2020-09-17 12:00:00 23.9 4 Este 12 Sudeste 0 -- -- 75
2020-09-17 11:00:00 23.3 5 Este 9 Este 0 -- -- 73
2020-09-17 10:00:00 22.8 3 Este 8 Este 0 -- -- 78
2020-09-17 09:00:00 21.1 4 Este 9 Este 0 -- -- 83
2020-09-17 08:00:00 20.4 2 Sur 5 Sudeste 0 -- -- 88
2020-09-17 07:00:00 20.5 0 Calma 4 Sudoeste 0 -- -- 86
2020-09-17 06:00:00 20.7 2 Oeste 5 Sudoeste 0 -- -- 87
2020-09-17 05:00:00 20.5 2 Sudeste 5 Este 0 -- -- 85
2020-09-17 04:00:00 20.8 0 Calma 2 Sudeste 0 -- -- 84
2020-09-17 03:00:00 21.1 0 Calma 3 Oeste 0 -- -- 81
2020-09-17 02:00:00 21.5 0 Calma 4 Oeste 0 -- -- 77
2020-09-17 01:00:00 21.9 4 Oeste 6 Sudoeste 0 -- -- 76
2020-09-17 00:00:00 22.4 0 Calma 4 Oeste 0 -- -- 75
2020-09-16 23:00:00 22.7 2 Oeste 12 Este 0 -- -- 72
2020-09-16 22:00:00 22.7 7 Sudeste 12 Sudeste 0 -- -- 72
2020-09-16 21:00:00 21.9 4 Sudeste 14 Sudeste 0 -- -- 80
2020-09-16 20:00:00 22.2 6 Sur 11 Este 0 -- -- 84
2020-09-16 19:00:00 23.4 6 Este 10 Este 0 -- -- 81
2020-09-16 18:00:00 24.4 6 Este 12 Este 0 -- -- 76
2020-09-16 17:00:00 25.2 10 Este 14 Este 0 -- -- 74
2020-09-16 16:00:00 25.1 5 Este 14 Este 0 -- -- 72
2020-09-16 15:00:00 24.6 8 Este 14 Este 0 -- -- 76
2020-09-16 14:00:00 24.3 8 Este 13 Este 0 -- -- 76
2020-09-16 13:00:00 24.3 7 Este 11 Nordeste 0 -- -- 74
2020-09-16 12:00:00 23.9 5 Este 9 Nordeste 0 -- -- 72
2020-09-16 11:00:00 22.6 3 Nordeste 5 Nordeste 0 -- -- 79
2020-09-16 10:00:00 20.9 0 Calma 4 Oeste 0 -- -- 90
2020-09-16 09:00:00 20.2 0 Calma 2 Norte 0 -- -- 92
2020-09-16 08:00:00 19.3 3 Sudeste 4 Sudeste 0 -- -- 92
2020-09-16 07:00:00 19.4 2 Sudeste 3 Sudeste 0 -- -- 93
2020-09-16 06:00:00 19.8 0 Calma 3 Sudoeste 0 -- -- 93
2020-09-16 05:00:00 20.1 0 Calma 2 Oeste 0 -- -- 93
2020-09-16 04:00:00 19.8 0 Calma 3 Sudeste 0 -- -- 92
2020-09-16 03:00:00 20.1 3 Sudeste 4 Sudeste 0 -- -- 92
2020-09-16 02:00:00 20.4 0 Calma 2 Norte 0 -- -- 91
2020-09-16 01:00:00 20.7 0 Calma 3 Oeste 0 -- -- 89
2020-09-16 00:00:00 20.9 2 Oeste 4 Oeste 0 -- -- 87
2020-09-15 23:00:00 21.4 0 Calma 7 Noroeste 0 -- -- 83
2020-09-15 22:00:00 21.5 3 Oeste 6 Noroeste 0 -- -- 83
2020-09-15 21:00:00 22.5 3 Noroeste 6 Oeste 0 -- -- 79
2020-09-15 20:00:00 24.7 2 Oeste 6 Sudeste 0 -- -- 65
2020-09-15 19:00:00 25.2 2 Este 8 Sudeste 0 -- -- 60
2020-09-15 18:00:00 25.8 3 Este 13 Este 0 -- -- 56
2020-09-15 17:00:00 26.2 8 Este 14 Este 0 -- -- 61
2020-09-15 16:00:00 26.4 9 Este 17 Este 0 -- -- 62
2020-09-15 15:00:00 25.9 7 Este 13 Nordeste 0 -- -- 72
2020-09-15 14:00:00 24.9 6 Nordeste 12 Nordeste 0 -- -- 70
2020-09-15 13:00:00 26.9 10 Este 18 Nordeste 0 -- -- 57
2020-09-15 12:00:00 27.3 7 Este 16 Sudoeste 0 -- -- 53
2020-09-15 11:00:00 26 4 Sudeste 25 Oeste 0 -- -- 53
2020-09-15 10:00:00 23.5 8 Oeste 17 Oeste 0 -- -- 58
2020-09-15 09:00:00 21.8 0 Calma 7 Sudoeste 0 -- -- 65
2020-09-15 08:00:00 21.6 7 Sudeste 14 Sur 0 -- -- 65
2020-09-15 07:00:00 21 9 Sur 18 Sudoeste 0 -- -- 72
2020-09-15 06:00:00 20.6 14 Sudoeste 21 Sudoeste 0 -- -- 75
2020-09-15 05:00:00 20.8 11 Sur 27 Sudoeste 0 -- -- 75
2020-09-15 04:00:00 20.2 18 Sudoeste 23 Sudoeste 0 -- -- 80
2020-09-15 03:00:00 20.3 2 Norte 6 Sudoeste 0 -- -- 79
2020-09-15 02:00:00 20.4 6 Sur 15 Sudoeste 0 -- -- 79
2020-09-15 01:00:00 20.8 8 Oeste 27 Oeste 0 -- -- 79
2020-09-15 00:00:00 21.3 2 Nordeste 10 Este 0 -- -- 72
2020-09-14 23:00:00 21.7 5 Sudeste 10 Sur 0 -- -- 69
2020-09-14 22:00:00 21.4 6 Sur 17 Este 0 -- -- 76
2020-09-14 21:00:00 22.1 7 Este 12 Sudeste 0 -- -- 71
2020-09-14 20:00:00 22.7 8 Sudeste 19 Sudeste 0 -- -- 63
2020-09-14 19:00:00 23.5 7 Este 19 Noroeste 0 -- -- 62
2020-09-14 18:00:00 24.1 4 Noroeste 29 Noroeste 0 -- -- 60
2020-09-14 17:00:00 24.1 22 Noroeste 40 Noroeste 0 -- -- 60
2020-09-14 16:00:00 27.7 19 Noroeste 34 Noroeste 0 -- -- 54
2020-09-14 15:00:00 34.2 5 Norte 25 Oeste 0 -- -- 26
2020-09-14 14:00:00 34.4 9 Noroeste 35 Oeste 0 -- -- 26
2020-09-14 13:00:00 32.7 17 Oeste 44 Oeste 0 -- -- 29
2020-09-14 12:00:00 31.2 18 Sudoeste 37 Oeste 0 -- -- 32
2020-09-14 11:00:00 29.5 19 Sudoeste 50 Oeste 0 -- -- 33
2020-09-14 10:00:00 28.3 17 Sudoeste 49 Sudoeste 0 -- -- 35
2020-09-14 09:00:00 27.7 15 Oeste 47 Oeste 0 -- -- 35
2020-09-14 08:00:00 27.5 17 Oeste 57 Oeste 0 -- -- 35
2020-09-14 07:00:00 28 23 Sudoeste 55 Sudoeste 0 -- -- 34
2020-09-14 06:00:00 28.7 18 Oeste 45 Sur 0 -- -- 33
2020-09-14 05:00:00 29.5 14 Oeste 47 Sudoeste 0 -- -- 32
2020-09-14 04:00:00 29.9 17 Sudoeste 55 Sur 0 -- -- 31
2020-09-14 03:00:00 30 19 Sur 53 Sur 0 -- -- 31
2020-09-14 02:00:00 30.2 21 Sur 75 Sur 0 -- -- 30
2020-09-14 01:00:00 30.7 27 Sur 58 Sur 0 -- -- 27
2020-09-14 00:00:00 30.6 15 Sudoeste 42 Sur 0 -- -- 28
2020-09-13 23:00:00 28.6 10 Sudeste 24 Sur 0 -- -- 33
2020-09-13 22:00:00 28.3 5 Este 11 Este 0 -- -- 43
2020-09-13 21:00:00 27.3 4 Sur 9 Sur 0 -- -- 45
2020-09-13 20:00:00 27.7 2 Oeste 12 Sudeste 0 -- -- 56
2020-09-13 19:00:00 28.6 8 Sudeste 26 Sudeste 0 -- -- 52
2020-09-13 18:00:00 28.6 14 Sudeste 22 Sudeste 0 -- -- 52
2020-09-13 17:00:00 28.8 13 Sudeste 24 Este 0 -- -- 53
2020-09-13 16:00:00 28.5 13 Este 25 Este 0 -- -- 53
2020-09-13 15:00:00 27 13 Sudeste 22 Este 0 -- -- 55
2020-09-13 14:00:00 27 11 Este 18 Este 0 -- -- 50
2020-09-13 13:00:00 26.6 9 Sudeste 13 Este 0 -- -- 59
2020-09-13 12:00:00 25.4 8 Este 12 Este 0 -- -- 64
2020-09-13 11:00:00 24.8 5 Este 9 Este 0 -- -- 63
2020-09-13 10:00:00 22.2 0 Calma 4 Este 0 -- -- 69
2020-09-13 09:00:00 19.8 2 Oeste 4 Oeste 0 -- -- 70
2020-09-13 08:00:00 18.8 2 Este 5 Sudeste 0 -- -- 72
2020-09-13 07:00:00 18.3 0 Calma 4 Sudoeste 0 -- -- 76
2020-09-13 06:00:00 18.9 3 Oeste 4 Oeste 0 -- -- 74
2020-09-13 05:00:00 18.8 0 Calma 9 Sudeste 0 -- -- 76
2020-09-13 04:00:00 18.8 6 Sudeste 9 Sudeste 0 -- -- 79
2020-09-13 03:00:00 19.1 5 Sudeste 8 Sudeste 0 -- -- 80
2020-09-13 02:00:00 18.9 4 Sudeste 7 Sudeste 0 -- -- 84
2020-09-13 01:00:00 19 3 Este 6 Este 0 -- -- 80
2020-09-13 00:00:00 19.2 3 Este 4 Este 0 -- -- 79
2020-09-12 23:00:00 19.4 0 Calma 5 Este 0 -- -- 78
2020-09-12 22:00:00 19.8 3 Este 13 Sudeste 0 -- -- 75
2020-09-12 21:00:00 19.6 5 Sudoeste 10 Sudeste 0 -- -- 78
2020-09-12 20:00:00 22 4 Este 7 Este 0 -- -- 71
2020-09-12 19:00:00 23.2 4 Este 7 Nordeste 0 -- -- 68
2020-09-12 18:00:00 23.3 6 Este 10 Este 0 -- -- 66
2020-09-12 17:00:00 23.7 7 Este 12 Nordeste 0 -- -- 65
2020-09-12 16:00:00 23.3 8 Nordeste 13 Nordeste 0 -- -- 65
2020-09-12 15:00:00 23.3 6 Nordeste 12 Nordeste 0 -- -- 68
2020-09-12 14:00:00 23 6 Nordeste 12 Norte 0 -- -- 73
2020-09-12 13:00:00 22.7 6 Nordeste 10 Nordeste 0 -- -- 74
2020-09-12 12:00:00 22.4 4 Norte 9 Nordeste 0 -- -- 77
2020-09-12 11:00:00 22 4 Nordeste 8 Nordeste 0 -- -- 77
2020-09-12 10:00:00 20.4 3 Oeste 6 Oeste 0 -- -- 86
2020-09-12 09:00:00 19.1 2 Sudoeste 5 Sur 0 -- -- 88
2020-09-12 08:00:00 18.6 2 Sudeste 4 Sur 0 -- -- 89
2020-09-12 07:00:00 18.5 3 Sudoeste 4 Sudoeste 0 -- -- 89
2020-09-12 06:00:00 18.5 3 Sudoeste 6 Sudoeste 0 -- -- 87
2020-09-12 05:00:00 18.3 3 Oeste 5 Oeste 0 -- -- 83
2020-09-12 04:00:00 18.6 4 Oeste 6 Oeste 0 -- -- 79
2020-09-12 03:00:00 18.5 0 Calma 8 Sur 0 -- -- 78
2020-09-12 02:00:00 18.4 4 Sur 9 Sudeste 0 -- -- 83
2020-09-12 01:00:00 18.4 4 Sur 9 Sur 0 -- -- 88
2020-09-12 00:00:00 18.8 6 Sudeste 9 Sudeste 0 -- -- 91
2020-09-11 23:00:00 18.9 4 Sudeste 7 Sudeste 0 -- -- 90
2020-09-11 22:00:00 19.3 3 Este 8 Este 0 -- -- 88
2020-09-11 21:00:00 20.1 4 Este 9 Este 0 -- -- 85
2020-09-11 20:00:00 22.2 4 Este 6 Este 0 -- -- 76
2020-09-11 19:00:00 22.7 3 Nordeste 6 Este 0 -- -- 75
2020-09-11 18:00:00 22.5 4 Este 11 Nordeste 0 -- -- 77
2020-09-11 17:00:00 22 6 Nordeste 15 Nordeste 0 -- -- 79
2020-09-11 16:00:00 22.5 10 Nordeste 16 Nordeste 0 -- -- 77
2020-09-11 15:00:00 24.2 7 Nordeste 16 Nordeste 0 -- -- 73
2020-09-11 14:00:00 23.5 7 Nordeste 13 Este 0 -- -- 77
2020-09-11 13:00:00 23.3 8 Este 13 Este 0 -- -- 77
2020-09-11 12:00:00 22.2 7 Nordeste 12 Este 0 -- -- 79
2020-09-11 11:00:00 21.6 5 Nordeste 9 Nordeste 0 -- -- 80
2020-09-11 10:00:00 19.7 3 Oeste 7 Oeste 0 -- -- 87
2020-09-11 09:00:00 19 0 Calma 3 Sudoeste 0 -- -- 88
2020-09-11 08:00:00 18.3 3 Sudoeste 6 Sudoeste 0 -- -- 88
2020-09-11 07:00:00 18.5 3 Oeste 4 Sudoeste 0 -- -- 88
2020-09-11 06:00:00 18.5 0 Calma 11 Sudoeste 0 -- -- 88
2020-09-11 05:00:00 18.5 8 Sudoeste 12 Sudoeste 0 -- -- 89
2020-09-11 04:00:00 18.8 5 Sudoeste 9 Sudoeste 0 -- -- 89
2020-09-11 03:00:00 18.7 5 Sudoeste 12 Sudoeste 0 -- -- 89
2020-09-11 02:00:00 18.8 6 Sudoeste 9 Sudoeste 0 -- -- 90
2020-09-11 01:00:00 18.7 6 Sudoeste 9 Oeste 0 -- -- 90
2020-09-11 00:00:00 18.9 5 Sudoeste 10 Sudoeste 0 -- -- 90
2020-09-10 23:00:00 18.9 7 Sudoeste 12 Sudoeste 0 -- -- 90
2020-09-10 22:00:00 19.2 7 Oeste 10 Oeste 0 -- -- 89
2020-09-10 21:00:00 19.7 3 Oeste 13 Noroeste 0 -- -- 88
2020-09-10 20:00:00 20.8 7 Noroeste 14 Noroeste 0 -- -- 86
2020-09-10 19:00:00 21.9 4 Noroeste 11 Oeste 0 -- -- 82
2020-09-10 18:00:00 21.9 4 Noroeste 11 Norte 0 -- -- 82
2020-09-10 17:00:00 22.7 4 Noroeste 9 Noroeste 0 -- -- 78
2020-09-10 16:00:00 23.2 4 Noroeste 10 Norte 0 -- -- 77
2020-09-10 15:00:00 23.2 5 Nordeste 10 Nordeste 0 -- -- 73
2020-09-10 14:00:00 23.1 4 Norte 10 Norte 0 -- -- 74
2020-09-10 13:00:00 22.6 4 Norte 10 Noroeste 0 -- -- 75
2020-09-10 12:00:00 22.2 5 Nordeste 12 Norte 0 -- -- 71
2020-09-10 11:00:00 21.8 4 Nordeste 7 Nordeste 0 -- -- 65
2020-09-10 10:00:00 20.5 2 Noroeste 14 Sudoeste 0 -- -- 68
2020-09-10 09:00:00 18.7 10 Sudoeste 14 Sudoeste 0 -- -- 74
2020-09-10 08:00:00 17.8 10 Sudoeste 17 Sudoeste 0 -- -- 79
2020-09-10 07:00:00 17.9 11 Sudoeste 19 Sudoeste 0 -- -- 79
2020-09-10 06:00:00 18 13 Sudoeste 19 Sudoeste 0 -- -- 80
2020-09-10 05:00:00 18.4 6 Sudoeste 20 Sur 0 -- -- 76
2020-09-10 04:00:00 18.4 11 Sudoeste 23 Sudoeste 0 -- -- 76
2020-09-10 03:00:00 18.5 10 Sudoeste 18 Sudoeste 0 -- -- 76
2020-09-10 02:00:00 18.2 8 Oeste 13 Oeste 0 -- -- 73
2020-09-10 01:00:00 18.9 10 Oeste 18 Oeste 0 -- -- 72
2020-09-10 00:00:00 18.8 7 Oeste 12 Oeste 0 -- -- 68
2020-09-09 23:00:00 19.6 6 Oeste 14 Oeste 0 -- -- 65
2020-09-09 22:00:00 19.9 4 Oeste 10 Sudoeste 0 -- -- 55
2020-09-09 21:00:00 20.1 6 Sudoeste 16 Noroeste 0 -- -- 63
2020-09-09 20:00:00 21.8 6 Noroeste 12 Oeste 0 -- -- 71
2020-09-09 19:00:00 23.3 3 Noroeste 12 Oeste 0 -- -- 76
2020-09-09 18:00:00 23.3 5 Noroeste 10 Oeste 0 -- -- 71
2020-09-09 17:00:00 23.6 4 Norte 12 Noroeste 0 -- -- 66
2020-09-09 16:00:00 23.6 4 Norte 9 Noroeste 0 -- -- 68
2020-09-09 15:00:00 22.7 5 Norte 10 Nordeste 0 -- -- 67
2020-09-09 14:00:00 23 5 Nordeste 9 Nordeste 0 -- -- 63
2020-09-09 13:00:00 23.2 6 Este 13 Nordeste 0 -- -- 61
2020-09-09 12:00:00 21.8 7 Nordeste 11 Este 0 -- -- 70
2020-09-09 11:00:00 22 3 Norte 10 Nordeste 0 -- -- 66
2020-09-09 10:00:00 21.6 6 Sudeste 10 Sudeste 0 -- -- 70
2020-09-09 09:00:00 19.4 3 Este 5 Este 0 -- -- 69
2020-09-09 08:00:00 17.6 0 Calma 3 Oeste 0 -- -- 68
2020-09-09 07:00:00 17.8 0 Calma 7 Oeste 0 -- -- 67
2020-09-09 06:00:00 17.9 3 Sudoeste 6 Sudoeste 0 -- -- 64
2020-09-09 05:00:00 18.2 6 Sudoeste 9 Sur 0 -- -- 66
2020-09-09 04:00:00 18 6 Sur 9 Sur 0 -- -- 71
2020-09-09 03:00:00 18.4 3 Sudoeste 5 Sudoeste 0 -- -- 75
2020-09-09 02:00:00 18.3 4 Sur 6 Sudoeste 0 -- -- 73
2020-09-09 01:00:00 18.2 3 Sur 10 Sudeste 0 -- -- 75
2020-09-09 00:00:00 18.2 5 Sur 11 Sudeste 0 -- -- 75
2020-09-08 23:00:00 18.5 6 Sudeste 11 Sur 0 -- -- 74
2020-09-08 22:00:00 18.6 6 Sudeste 10 Sudeste 0 -- -- 72
2020-09-08 21:00:00 19.1 5 Sudeste 12 Este 0 -- -- 71
2020-09-08 20:00:00 21.3 6 Este 9 Este 0 -- -- 63
2020-09-08 19:00:00 22.1 3 Sudeste 11 Este 0 -- -- 59
2020-09-08 18:00:00 21.9 3 Este 9 Nordeste 0 -- -- 62
2020-09-08 17:00:00 21.6 4 Nordeste 10 Nordeste 0 -- -- 65
2020-09-08 16:00:00 21.9 7 Nordeste 13 Norte 0 -- -- 67
2020-09-08 15:00:00 21.5 6 Nordeste 13 Este 0 -- -- 67
2020-09-08 14:00:00 21.2 8 Nordeste 13 Este 0 -- -- 66
2020-09-08 13:00:00 20.6 7 Nordeste 13 Nordeste 0 -- -- 66
2020-09-08 12:00:00 20.4 8 Este 14 Este 0 -- -- 66
2020-09-08 11:00:00 19.9 8 Este 12 Este 0 -- -- 65
2020-09-08 10:00:00 18.7 5 Nordeste 10 Este 0 -- -- 68
2020-09-08 09:00:00 16.8 4 Sudoeste 8 Sudoeste 0 -- -- 71
2020-09-08 08:00:00 15.4 4 Sur 9 Sudeste 0 -- -- 74
2020-09-08 07:00:00 15.6 5 Sudeste 12 Sur 0 -- -- 74
2020-09-08 06:00:00 15.6 6 Sur 13 Sudeste 0 -- -- 72
2020-09-08 05:00:00 16 7 Sur 16 Sudeste 0 -- -- 74
2020-09-08 04:00:00 16.8 9 Sudeste 17 Este 0 -- -- 74
2020-09-08 03:00:00 17.7 12 Sudeste 29 Nordeste 0 -- -- 79
2020-09-08 02:00:00 18.5 11 Nordeste 23 Nordeste 0 -- -- 74
2020-09-08 01:00:00 18.1 11 Nordeste 20 Nordeste 0 -- -- 73
2020-09-08 00:00:00 17.9 11 Nordeste 22 Nordeste 0 -- -- 71
2020-09-07 23:00:00 17.8 4 Sur 22 Nordeste 0 -- -- 70
2020-09-07 22:00:00 17.7 4 Sudoeste 14 Norte 0 -- -- 70
2020-09-07 21:00:00 17.8 4 Sudoeste 13 Norte 0 -- -- 69
2020-09-07 20:00:00 18.6 4 Sur 14 Norte 0 -- -- 64
2020-09-07 19:00:00 20.4 6 Norte 16 Nordeste 0 -- -- 58
2020-09-07 18:00:00 21 4 Noroeste 19 Nordeste 0 -- -- 58
2020-09-07 17:00:00 21 5 Nordeste 20 Nordeste 0 -- -- 59
2020-09-07 16:00:00 20.2 10 Nordeste 22 Nordeste 0 -- -- 57
2020-09-07 15:00:00 20.2 13 Nordeste 23 Nordeste 0 -- -- 55
2020-09-07 14:00:00 20.4 12 Nordeste 19 Nordeste 0 -- -- 55
2020-09-07 13:00:00 20.3 9 Nordeste 14 Nordeste 0 -- -- 55
2020-09-07 12:00:00 19.8 8 Nordeste 14 Este 0 -- -- 62
2020-09-07 11:00:00 19.4 7 Este 14 Este 0 -- -- 64
2020-09-07 10:00:00 17.5 6 Sudeste 13 Este 0 -- -- 70
2020-09-07 09:00:00 15.4 6 Sur 15 Sudeste 0 -- -- 83
2020-09-07 08:00:00 15.1 11 Este 29 Este 0.2 -- -- 84
2020-09-07 07:00:00 16.2 14 Este 27 Este 0 -- -- 84
2020-09-07 06:00:00 16.1 3 Noroeste 6 Oeste 0 -- -- 74
2020-09-07 05:00:00 16.3 4 Nordeste 31 Nordeste 0 -- -- 73
2020-09-07 04:00:00 16.8 10 Este 28 Nordeste 0 -- -- 77
2020-09-07 03:00:00 17.3 4 Norte 19 Nordeste 0 -- -- 66
2020-09-07 02:00:00 17.4 11 Nordeste 27 Nordeste 0 -- -- 66
2020-09-07 01:00:00 17.4 4 Sudoeste 17 Nordeste 0 -- -- 69
2020-09-07 00:00:00 17.3 5 Nordeste 24 Nordeste 0 -- -- 71
2020-09-06 23:00:00 17.4 7 Nordeste 30 Nordeste 0 -- -- 71
2020-09-06 22:00:00 17.5 12 Nordeste 30 Nordeste 0 -- -- 71
2020-09-06 21:00:00 17.8 4 Sudoeste 19 Nordeste 0 -- -- 69
2020-09-06 20:00:00 18.2 4 Sudoeste 28 Nordeste 0 -- -- 69
2020-09-06 19:00:00 18.6 7 Sudeste 22 Nordeste 0 -- -- 66
2020-09-06 18:00:00 19.9 7 Nordeste 27 Nordeste 0 -- -- 63
2020-09-06 17:00:00 19.3 10 Nordeste 30 Nordeste 0 -- -- 66
2020-09-06 16:00:00 20.4 9 Noroeste 22 Noroeste 0 -- -- 68
2020-09-06 15:00:00 21 7 Noroeste 17 Noroeste 0 -- -- 65
2020-09-06 14:00:00 20.8 7 Noroeste 23 Noroeste 0 -- -- 60
2020-09-06 13:00:00 20.7 7 Noroeste 22 Noroeste 0 -- -- 61
2020-09-06 12:00:00 20.2 7 Noroeste 20 Oeste 0 -- -- 63
2020-09-06 11:00:00 18.2 8 Oeste 15 Oeste 0 -- -- 72
2020-09-06 10:00:00 17.4 7 Oeste 13 Oeste 0 -- -- 73
2020-09-06 09:00:00 17.1 6 Oeste 9 Oeste 0 -- -- 74
2020-09-06 08:00:00 17.2 8 Oeste 16 Oeste 0 -- -- 73
2020-09-06 07:00:00 17.4 4 Noroeste 15 Noroeste 0 -- -- 74
2020-09-06 06:00:00 17.4 5 Noroeste 16 Norte 0 -- -- 73
2020-09-06 05:00:00 17.6 4 Noroeste 17 Noroeste 0 -- -- 75
2020-09-06 04:00:00 17.8 5 Noroeste 17 Noroeste 0 -- -- 76
2020-09-06 03:00:00 17.9 5 Noroeste 17 Este 0 -- -- 77
2020-09-06 02:00:00 17.8 6 Este 17 Nordeste 0 -- -- 82
2020-09-06 01:00:00 17.7 5 Sudoeste 23 Este 0 -- -- 85
2020-09-06 00:00:00 18.6 3 Oeste 18 Nordeste 0 -- -- 77
2020-09-05 23:00:00 18.7 4 Nordeste 12 Nordeste 0 -- -- 76
2020-09-05 22:00:00 18.6 3 Sudoeste 11 Noroeste 0 -- -- 75
2020-09-05 21:00:00 18.7 5 Sudoeste 13 Norte 0 -- -- 79
2020-09-05 20:00:00 19.2 4 Sudoeste 15 Este 0 -- -- 79
2020-09-05 19:00:00 20 4 Sudoeste 19 Noroeste 0 -- -- 79
2020-09-05 18:00:00 20.3 7 Noroeste 18 Oeste 0 -- -- 80
2020-09-05 17:00:00 20.9 6 Noroeste 18 Noroeste 0 -- -- 78
2020-09-05 16:00:00 22.5 6 Noroeste 19 Norte 0 -- -- 73
2020-09-05 15:00:00 22.7 4 Norte 13 Norte 0 -- -- 71
2020-09-05 14:00:00 22.7 5 Noroeste 16 Oeste 0 -- -- 70
2020-09-05 13:00:00 21.7 5 Noroeste 18 Noroeste 0 -- -- 76
2020-09-05 12:00:00 22.1 5 Noroeste 16 Noroeste 0 -- -- 75
2020-09-05 11:00:00 21.2 8 Noroeste 22 Noroeste 0 -- -- 78
2020-09-05 10:00:00 20.5 10 Noroeste 22 Noroeste 0 -- -- 82
2020-09-05 09:00:00 19.9 15 Oeste 27 Oeste 0 -- -- 85
2020-09-05 08:00:00 19.8 11 Oeste 22 Oeste 0 -- -- 84
2020-09-05 07:00:00 19.9 13 Oeste 22 Sudoeste 0 -- -- 82
2020-09-05 06:00:00 19.8 14 Sudoeste 21 Sudoeste 0 -- -- 83
2020-09-05 05:00:00 20 13 Oeste 20 Oeste 0 -- -- 84
2020-09-05 04:00:00 19.8 10 Sudoeste 15 Sudoeste 0 -- -- 85
2020-09-05 03:00:00 20.3 7 Sudoeste 14 Oeste 0 -- -- 82
2020-09-05 02:00:00 20.6 6 Oeste 11 Oeste 0 -- -- 71
2020-09-05 01:00:00 20.8 8 Oeste 13 Oeste 0 -- -- 72
2020-09-05 00:00:00 21.7 5 Noroeste 12 Oeste 0 -- -- 71
2020-09-04 23:00:00 22.9 4 Este 9 Oeste 0 -- -- 60
2020-09-04 22:00:00 24 0 Calma 10 Oeste 0 -- -- 52
2020-09-04 21:00:00 24 8 Oeste 10 Oeste 0 -- -- 61
2020-09-04 20:00:00 24.6 6 Oeste 13 Oeste 0 -- -- 64
2020-09-04 19:00:00 25.7 6 Noroeste 13 Este 0 -- -- 66
2020-09-04 18:00:00 28.6 8 Sudeste 20 Este 0 -- -- 48
2020-09-04 17:00:00 28.8 14 Este 26 Sudeste 0 -- -- 47
2020-09-04 16:00:00 27.6 19 Sudeste 26 Este 0 -- -- 47
2020-09-04 15:00:00 27.6 15 Este 23 Sudeste 0 -- -- 48
2020-09-04 14:00:00 27.2 11 Este 17 Sudeste 0 -- -- 53
2020-09-04 13:00:00 27.1 8 Este 12 Este 0 -- -- 59
2020-09-04 12:00:00 25.6 6 Este 13 Este 0 -- -- 66
2020-09-04 11:00:00 24.6 8 Este 12 Este 0 -- -- 62
2020-09-04 10:00:00 23.2 4 Este 6 Este 0 -- -- 69
2020-09-04 09:00:00 20.9 0 Calma 4 Oeste 0 -- -- 66
2020-09-04 08:00:00 19.1 0 Calma 3 Oeste 0 -- -- 76
2020-09-04 07:00:00 19 0 Calma 4 Sudeste 0 -- -- 81
2020-09-04 06:00:00 18.7 0 Calma 2 Este 0 -- -- 89
2020-09-04 05:00:00 18.8 0 Calma 4 Sudeste 0 -- -- 87
2020-09-04 04:00:00 19.1 0 Calma 6 Sudoeste 0 -- -- 86
2020-09-04 03:00:00 19 4 Oeste 8 Oeste 0 -- -- 84
2020-09-04 02:00:00 19.1 3 Oeste 4 Oeste 0 -- -- 87
2020-09-04 01:00:00 19.4 3 Oeste 7 Oeste 0 -- -- 87
2020-09-04 00:00:00 19.4 5 Oeste 6 Oeste 0 -- -- 87
2020-09-03 23:00:00 19.6 2 Oeste 3 Oeste 0 -- -- 86
2020-09-03 22:00:00 19.9 0 Calma 3 Este 0 -- -- 83
2020-09-03 21:00:00 21.5 3 Este 5 Sudeste 0 -- -- 76
2020-09-03 20:00:00 24.2 2 Este 9 Este 0 -- -- 66
2020-09-03 19:00:00 24.9 6 Este 12 Este 0 -- -- 63
2020-09-03 18:00:00 25.2 10 Este 16 Este 0 -- -- 57
2020-09-03 17:00:00 24.7 8 Este 16 Este 0 -- -- 56
2020-09-03 16:00:00 23.8 8 Este 14 Este 0 -- -- 56
2020-09-03 15:00:00 23.4 9 Este 18 Este 0 -- -- 60
2020-09-03 14:00:00 22.9 10 Este 18 Este 0 -- -- 59
2020-09-03 13:00:00 22.2 9 Este 18 Este 0 -- -- 60
2020-09-03 12:00:00 21.5 10 Este 16 Este 0 -- -- 60
2020-09-03 11:00:00 20.8 7 Nordeste 11 Este 0 -- -- 58
2020-09-03 10:00:00 19.6 0 Calma 8 Sudeste 0 -- -- 63
2020-09-03 09:00:00 18.1 4 Sudeste 9 Sur 0 -- -- 61
2020-09-03 08:00:00 16 5 Sur 8 Sudeste 0 -- -- 65
2020-09-03 07:00:00 16 4 Sudeste 6 Sudeste 0 -- -- 68
2020-09-03 06:00:00 16.4 4 Sudeste 6 Sur 0 -- -- 66
2020-09-03 05:00:00 16.3 4 Sur 8 Sur 0 -- -- 69
2020-09-03 04:00:00 16.4 5 Sur 10 Sudeste 0 -- -- 71
2020-09-03 03:00:00 17 9 Este 15 Este 0 -- -- 70
2020-09-03 02:00:00 17.2 4 Sur 8 Sur 0 -- -- 71
2020-09-03 01:00:00 17.4 5 Sur 10 Sudeste 0 -- -- 69
2020-09-03 00:00:00 17.5 5 Sudeste 10 Este 0 -- -- 68
2020-09-02 23:00:00 17.8 7 Sudeste 14 Este 0 -- -- 66
2020-09-02 22:00:00 18.4 8 Este 14 Este 0 -- -- 65
2020-09-02 21:00:00 19.5 4 Este 11 Este 0 -- -- 58
2020-09-02 20:00:00 22 5 Este 12 Nordeste 0 -- -- 50
2020-09-02 19:00:00 22.3 6 Nordeste 13 Nordeste 0 -- -- 48
2020-09-02 18:00:00 22.8 6 Nordeste 14 Nordeste 0 -- -- 47
2020-09-02 17:00:00 22.8 6 Nordeste 14 Este 0 -- -- 48
2020-09-02 16:00:00 22.7 9 Nordeste 15 Nordeste 0 -- -- 50
2020-09-02 15:00:00 23.3 10 Nordeste 15 Nordeste 0 -- -- 51
2020-09-02 14:00:00 22.5 8 Nordeste 15 Nordeste 0 -- -- 55
2020-09-02 13:00:00 21.7 4 Norte 11 Norte 0 -- -- 71
2020-09-02 12:00:00 21.1 4 Noroeste 11 Norte 0 -- -- 73
2020-09-02 11:00:00 20.6 4 Noroeste 13 Oeste 0 -- -- 73
2020-09-02 10:00:00 19.1 10 Oeste 13 Oeste 0 -- -- 77
2020-09-02 09:00:00 18.4 5 Oeste 13 Oeste 0 -- -- 78
2020-09-02 08:00:00 17 9 Oeste 13 Oeste 0 -- -- 83
2020-09-02 07:00:00 17.1 6 Oeste 15 Oeste 0 -- -- 80
2020-09-02 06:00:00 17.3 9 Oeste 15 Oeste 0 -- -- 80
2020-09-02 05:00:00 17.2 6 Oeste 10 Sudoeste 0 -- -- 79
2020-09-02 04:00:00 17.5 5 Oeste 9 Oeste 0 -- -- 77
2020-09-02 03:00:00 17.5 5 Oeste 8 Oeste 0 -- -- 78
2020-09-02 02:00:00 17.9 4 Sudoeste 5 Sudoeste 0 -- -- 75
2020-09-02 01:00:00 17.9 2 Oeste 6 Norte 0 -- -- 76
2020-09-02 00:00:00 18.5 3 Noroeste 11 Norte 0 -- -- 75
2020-09-01 23:00:00 18.6 4 Oeste 12 Oeste 0 -- -- 77
2020-09-01 22:00:00 18.8 3 Sudoeste 8 Oeste 0 -- -- 73
2020-09-01 21:00:00 19.7 3 Sudoeste 6 Sudoeste 0 -- -- 69
2020-09-01 20:00:00 21.5 3 Noroeste 8 Norte 0 -- -- 62
2020-09-01 19:00:00 21.8 3 Norte 9 Sudoeste 0 -- -- 62
2020-09-01 18:00:00 22.7 4 Noroeste 10 Norte 0 -- -- 63
2020-09-01 17:00:00 22.8 4 Noroeste 15 Oeste 0 -- -- 64
2020-09-01 16:00:00 22.1 5 Noroeste 12 Noroeste 0 -- -- 71
2020-09-01 15:00:00 21.8 5 Noroeste 10 Nordeste 0 -- -- 71
2020-09-01 14:00:00 22.1 4 Norte 11 Norte 0 -- -- 69
2020-09-01 13:00:00 21.4 4 Nordeste 11 Nordeste 0 -- -- 68
2020-09-01 12:00:00 20.6 3 Norte 8 Este 0 -- -- 68
2020-09-01 11:00:00 20.2 3 Nordeste 10 Oeste 0 -- -- 66
2020-09-01 10:00:00 19.1 3 Oeste 6 Oeste 0 -- -- 61
2020-09-01 09:00:00 17.8 2 Sudoeste 6 Oeste 0 -- -- 59
2020-09-01 08:00:00 16.8 4 Oeste 5 Sudoeste 0 -- -- 57
2020-09-01 07:00:00 16.4 0 Calma 2 Nordeste 0 -- -- 62
2020-09-01 06:00:00 16.6 0 Calma 2 Norte 0 -- -- 64
2020-09-01 05:00:00 16.7 0 Calma 6 Sudoeste 0 -- -- 66
2020-09-01 04:00:00 16.8 3 Sudoeste 5 Sudoeste 0 -- -- 66
2020-09-01 03:00:00 16.8 2 Sudoeste 5 Oeste 0 -- -- 70
2020-09-01 02:00:00 17.1 0 Calma 6 Oeste 0 -- -- 68
2020-09-01 01:00:00 17.1 2 Sur 8 Sudeste 0 -- -- 73
2020-09-01 00:00:00 17.2 4 Sudeste 10 Sudeste 0 -- -- 74
2020-08-31 23:00:00 17.4 4 Sudeste 6 Este 0 -- -- 73
2020-08-31 22:00:00 17.5 3 Sur 10 Sudeste 0 -- -- 74
2020-08-31 21:00:00 18 5 Sudeste 14 Sudeste 0 -- -- 71
2020-08-31 20:00:00 19.6 6 Sudeste 14 Este 0 -- -- 66
2020-08-31 19:00:00 20.8 8 Este 16 Este 0 -- -- 62
2020-08-31 18:00:00 21.3 9 Este 18 Este 0 -- -- 59
2020-08-31 17:00:00 21.5 9 Este 19 Este 0 -- -- 60
2020-08-31 16:00:00 21.5 10 Este 18 Este 0 -- -- 59
2020-08-31 15:00:00 21.2 11 Nordeste 20 Este 0 -- -- 60
2020-08-31 14:00:00 20.9 10 Nordeste 19 Nordeste 0 -- -- 61
2020-08-31 13:00:00 20.5 9 Este 17 Nordeste 0 -- -- 59
2020-08-31 12:00:00 19.8 11 Nordeste 16 Nordeste 0 -- -- 61
2020-08-31 11:00:00 19.2 3 Sudeste 9 Oeste 0 -- -- 62
2020-08-31 10:00:00 17.7 5 Sudoeste 12 Sudoeste 0 -- -- 68
2020-08-31 09:00:00 16 6 Sudoeste 11 Sudoeste 0 -- -- 70
2020-08-31 08:00:00 14.5 7 Sudoeste 9 Sudoeste 0 -- -- 73
2020-08-31 07:00:00 14.6 7 Sudoeste 15 Sudoeste 0 -- -- 73
2020-08-31 06:00:00 14.5 9 Sudoeste 14 Sudoeste 0 -- -- 74
2020-08-31 05:00:00 14.3 7 Sudoeste 13 Oeste 0 -- -- 76
2020-08-31 04:00:00 14.3 8 Sudoeste 14 Sudoeste 0 -- -- 76
2020-08-31 03:00:00 14.4 8 Sudoeste 13 Sudoeste 0 -- -- 76
2020-08-31 02:00:00 14.5 9 Oeste 13 Oeste 0 -- -- 77
2020-08-31 01:00:00 14.9 8 Oeste 12 Oeste 0 -- -- 76
2020-08-31 00:00:00 14.8 7 Oeste 12 Oeste 0 -- -- 77
2020-08-30 23:00:00 15.2 4 Sudoeste 15 Oeste 0 -- -- 76
2020-08-30 22:00:00 15.4 8 Oeste 15 Oeste 0 -- -- 78
2020-08-30 21:00:00 15.4 5 Oeste 12 Oeste 0 -- -- 80
2020-08-30 20:00:00 15 9 Sudoeste 14 Sudoeste 0.6 -- -- 86
2020-08-30 19:00:00 16.6 3 Sudoeste 15 Este 0 -- -- 75
2020-08-30 18:00:00 16.6 4 Sur 13 Este 0 -- -- 83
2020-08-30 17:00:00 16.4 5 Este 27 Este 2 -- -- 81
2020-08-30 16:00:00 18.5 12 Noroeste 26 Noroeste 0 -- -- 68
2020-08-30 15:00:00 18.6 9 Este 22 Este 0 -- -- 69
2020-08-30 14:00:00 17.7 6 Oeste 17 Oeste 0 -- -- 72
2020-08-30 13:00:00 15.8 15 Sudoeste 21 Oeste 0 -- -- 81
2020-08-30 12:00:00 13.5 10 Oeste 38 Oeste 1.6 -- -- 90
2020-08-30 11:00:00 13.8 15 Oeste 25 Oeste 0 -- -- 84
2020-08-30 10:00:00 15.6 8 Noroeste 26 Noroeste 0 -- -- 80
2020-08-30 09:00:00 13.9 10 Oeste 29 Oeste 0 -- -- 87
2020-08-30 08:00:00 13.3 18 Oeste 37 Oeste 0 -- -- 87
2020-08-30 07:00:00 12.9 21 Oeste 40 Sudoeste 2.4 -- -- 88
2020-08-30 06:00:00 13.1 19 Sudoeste 32 Oeste 1.2 -- -- 89
2020-08-30 05:00:00 14 17 Oeste 28 Oeste 0 -- -- 81
2020-08-30 04:00:00 13.5 18 Oeste 39 Oeste 0.4 -- -- 82
2020-08-30 03:00:00 15.1 19 Oeste 33 Oeste 0 -- -- 69
2020-08-30 02:00:00 14.9 19 Oeste 35 Oeste 0 -- -- 70
2020-08-30 01:00:00 15.2 18 Oeste 39 Noroeste 0 -- -- 71
2020-08-30 00:00:00 15.5 17 Noroeste 36 Noroeste 0 -- -- 76
2020-08-29 23:00:00 14.3 19 Noroeste 41 Oeste 0.2 -- -- 82
2020-08-29 22:00:00 13.7 27 Noroeste 49 Sudoeste 19.8 -- -- 93
2020-08-29 21:00:00 14.2 15 Oeste 35 Sudoeste 11.6 -- -- 89
2020-08-29 20:00:00 16.2 17 Noroeste 37 Oeste 0.2 -- -- 79
2020-08-29 19:00:00 15.2 14 Oeste 30 Noroeste 1.2 -- -- 90
2020-08-29 18:00:00 16 21 Oeste 43 Noroeste 2 -- -- 86
2020-08-29 17:00:00 18.6 15 Noroeste 32 Oeste 0 -- -- 71
2020-08-29 16:00:00 17.6 15 Oeste 34 Oeste 0 -- -- 73
2020-08-29 15:00:00 18.3 12 Noroeste 33 Oeste 0 -- -- 76
2020-08-29 14:00:00 18.7 18 Oeste 31 Oeste 0 -- -- 71
2020-08-29 13:00:00 18.6 18 Oeste 39 Oeste 0 -- -- 70
2020-08-29 12:00:00 17 19 Oeste 35 Oeste 0 -- -- 73
2020-08-29 11:00:00 16.2 24 Oeste 38 Oeste 0 -- -- 81
2020-08-29 10:00:00 14.5 18 Oeste 35 Sudoeste 0.8 -- -- 86
2020-08-29 09:00:00 14.9 18 Oeste 33 Oeste 0 -- -- 83
2020-08-29 08:00:00 14.3 18 Oeste 42 Sudoeste 0.4 -- -- 85
2020-08-29 07:00:00 14.9 28 Oeste 51 Oeste 0 -- -- 80
2020-08-29 06:00:00 14.9 27 Oeste 41 Sudoeste 0 -- -- 82
2020-08-29 05:00:00 15.2 26 Oeste 39 Oeste 0 -- -- 79
2020-08-29 04:00:00 15.1 26 Oeste 41 Oeste 0.2 -- -- 81
2020-08-29 03:00:00 14.8 19 Oeste 35 Sudoeste 1.2 -- -- 88
2020-08-29 02:00:00 15.5 12 Oeste 25 Oeste 0.6 -- -- 82
2020-08-29 01:00:00 16.7 16 Oeste 31 Oeste 0 -- -- 72
2020-08-29 00:00:00 16.2 14 Oeste 26 Oeste 0 -- -- 79
2020-08-28 23:00:00 16 14 Oeste 33 Noroeste 0 -- -- 84
2020-08-28 22:00:00 15.6 19 Oeste 37 Oeste 0.6 -- -- 86
2020-08-28 21:00:00 17 15 Oeste 28 Oeste 0 -- -- 79
2020-08-28 20:00:00 16.4 16 Oeste 35 Oeste 0 -- -- 84
2020-08-28 19:00:00 16.7 17 Oeste 39 Noroeste 0 -- -- 81
2020-08-28 18:00:00 17.4 8 Oeste 22 Oeste 0 -- -- 83
2020-08-28 17:00:00 16.8 14 Oeste 39 Oeste 0.2 -- -- 82
2020-08-28 16:00:00 16.9 15 Sudoeste 31 Oeste 0.4 -- -- 84
2020-08-28 15:00:00 17.9 15 Oeste 28 Oeste 0 -- -- 79
2020-08-28 14:00:00 18.3 14 Oeste 26 Oeste 0 -- -- 79
2020-08-28 13:00:00 17.8 15 Oeste 27 Sudoeste 0 -- -- 80
2020-08-28 12:00:00 16.7 18 Oeste 31 Noroeste 0 -- -- 87
2020-08-28 11:00:00 16.6 22 Oeste 39 Oeste 0 -- -- 88
2020-08-28 10:00:00 17.4 16 Oeste 37 Oeste 0 -- -- 85
2020-08-28 09:00:00 16.8 19 Oeste 33 Oeste 0 -- -- 89
2020-08-28 08:00:00 17.1 19 Oeste 41 Oeste 0 -- -- 89
2020-08-28 07:00:00 17.2 27 Oeste 49 Oeste 0.4 -- -- 94
2020-08-28 06:00:00 18.7 22 Noroeste 41 Noroeste 1.4 -- -- 93
2020-08-28 05:00:00 20.2 10 Sudoeste 18 Oeste 0 -- -- 89
2020-08-28 04:00:00 20.9 7 Oeste 15 Sudoeste 0 -- -- 85
2020-08-28 03:00:00 21 6 Oeste 9 Oeste 0 -- -- 85
2020-08-28 02:00:00 21.1 3 Oeste 10 Sudoeste 0 -- -- 85
2020-08-28 01:00:00 21.1 4 Oeste 8 Oeste 0 -- -- 85
2020-08-28 00:00:00 21.3 3 Sur 8 Sudeste 0 -- -- 84
2020-08-27 23:00:00 21.3 3 Oeste 10 Noroeste 0 -- -- 85
2020-08-27 22:00:00 21.4 4 Sudoeste 18 Oeste 0 -- -- 84
2020-08-27 21:00:00 21.7 9 Noroeste 19 Noroeste 0 -- -- 86
2020-08-27 20:00:00 22 13 Noroeste 23 Noroeste 0 -- -- 84
2020-08-27 19:00:00 23.5 8 Noroeste 24 Oeste 0 -- -- 78
2020-08-27 18:00:00 23.7 9 Noroeste 34 Oeste 0 -- -- 79
2020-08-27 17:00:00 24 14 Noroeste 30 Oeste 0 -- -- 79
2020-08-27 16:00:00 24.8 14 Noroeste 33 Noroeste 0 -- -- 77
2020-08-27 15:00:00 26 6 Noroeste 17 Noroeste 0 -- -- 70
2020-08-27 14:00:00 25.6 5 Noroeste 12 Norte 0 -- -- 72
2020-08-27 13:00:00 28.1 8 Este 13 Este 0 -- -- 64
2020-08-27 12:00:00 27 6 Este 11 Este 0 -- -- 68
2020-08-27 11:00:00 24.7 3 Nordeste 9 Este 0 -- -- 71
2020-08-27 10:00:00 23 3 Nordeste 6 Este 0 -- -- 79
2020-08-27 09:00:00 20.8 2 Oeste 8 Sudoeste 0 -- -- 86
2020-08-27 08:00:00 19.5 4 Sur 6 Sur 0 -- -- 91
2020-08-27 07:00:00 19.5 3 Sur 5 Sudeste 0 -- -- 91
2020-08-27 06:00:00 19.7 3 Sur 5 Sur 0 -- -- 92
2020-08-27 05:00:00 19.9 2 Sudeste 7 Este 0 -- -- 91
2020-08-27 04:00:00 20.1 4 Sudeste 8 Sudeste 0 -- -- 91
2020-08-27 03:00:00 20.5 5 Sudeste 11 Este 0 -- -- 89
2020-08-27 02:00:00 21.2 5 Sudeste 12 Este 0 -- -- 87
2020-08-27 01:00:00 21.3 5 Este 12 Sudeste 0 -- -- 88
2020-08-27 00:00:00 21.4 3 Este 10 Nordeste 0 -- -- 88
2020-08-26 23:00:00 21.6 4 Este 12 Este 0 -- -- 87
2020-08-26 22:00:00 21.8 4 Este 12 Este 0 -- -- 88
2020-08-26 21:00:00 22.3 3 Este 11 Nordeste 0 -- -- 85
2020-08-26 20:00:00 22.9 5 Este 13 Nordeste 0 -- -- 83
2020-08-26 19:00:00 23.7 6 Este 17 Nordeste 0 -- -- 80
2020-08-26 18:00:00 25.4 8 Nordeste 14 Nordeste 0 -- -- 72
2020-08-26 17:00:00 25.9 9 Este 18 Este 0 -- -- 71
2020-08-26 16:00:00 25.1 11 Este 20 Este 0 -- -- 75
2020-08-26 15:00:00 24.9 9 Nordeste 17 Nordeste 0 -- -- 77
2020-08-26 14:00:00 25.4 10 Nordeste 18 Nordeste 0 -- -- 71
2020-08-26 13:00:00 25.9 10 Este 17 Este 0 -- -- 70
2020-08-26 12:00:00 24.7 8 Este 13 Este 0 -- -- 72
2020-08-26 11:00:00 24 8 Este 12 Nordeste 0 -- -- 75
2020-08-26 10:00:00 22.7 5 Este 9 Sudeste 0 -- -- 80
2020-08-26 09:00:00 21.5 2 Sudeste 7 Sur 0 -- -- 83
2020-08-26 08:00:00 20.6 4 Sur 6 Sur 0 -- -- 82
2020-08-26 07:00:00 20.4 3 Sur 4 Sur 0 -- -- 81
2020-08-26 06:00:00 20.3 2 Este 4 Sudoeste 0 -- -- 81
2020-08-26 05:00:00 20.7 4 Sur 11 Sudoeste 0 -- -- 78
2020-08-26 04:00:00 21 5 Oeste 13 Sur 0 -- -- 78
2020-08-26 03:00:00 21.5 7 Sudoeste 14 Sudoeste 0 -- -- 77
2020-08-26 02:00:00 21.5 9 Sudoeste 13 Sudoeste 0 -- -- 78
2020-08-26 01:00:00 21 5 Sudoeste 6 Oeste 0 -- -- 81
2020-08-26 00:00:00 21 3 Sudoeste 8 Sudoeste 0 -- -- 81
2020-08-25 23:00:00 20.7 6 Oeste 12 Sudoeste 0 -- -- 83
2020-08-25 22:00:00 21.1 5 Sudoeste 10 Oeste 0 -- -- 81
2020-08-25 21:00:00 21.7 3 Noroeste 13 Oeste 0 -- -- 80
2020-08-25 20:00:00 23.8 4 Noroeste 11 Oeste 0 -- -- 72
2020-08-25 19:00:00 24.1 2 Nordeste 8 Norte 0 -- -- 70
2020-08-25 18:00:00 24.4 4 Norte 10 Norte 0 -- -- 69
2020-08-25 17:00:00 25.2 4 Norte 13 Norte 0 -- -- 64
2020-08-25 16:00:00 25.4 5 Norte 18 Norte 0 -- -- 66
2020-08-25 15:00:00 24.5 9 Noroeste 31 Oeste 0 -- -- 68
2020-08-25 14:00:00 24.6 16 Noroeste 39 Noroeste 0 -- -- 67
2020-08-25 13:00:00 24.4 22 Noroeste 43 Noroeste 0 -- -- 60
2020-08-25 12:00:00 25.5 10 Noroeste 24 Noroeste 0 -- -- 59
2020-08-25 11:00:00 26.9 3 Noroeste 7 Norte 0 -- -- 45
2020-08-25 10:00:00 24.6 2 Oeste 6 Nordeste 0 -- -- 54
2020-08-25 09:00:00 22.3 3 Noroeste 8 Oeste 0 -- -- 56
2020-08-25 08:00:00 21 5 Oeste 9 Oeste 0 -- -- 58
2020-08-25 07:00:00 23.2 5 Noroeste 23 Sudoeste 0 -- -- 51
2020-08-25 06:00:00 23.5 10 Sudoeste 21 Sudoeste 0 -- -- 48
2020-08-25 05:00:00 21.8 13 Sudoeste 24 Sudoeste 0 -- -- 54
2020-08-25 04:00:00 18.5 2 Sudeste 9 Oeste 0 -- -- 79
2020-08-25 03:00:00 18.4 0 Calma 5 Sudeste 0 -- -- 81
2020-08-25 02:00:00 18.6 2 Sudoeste 12 Este 0 -- -- 80
2020-08-25 01:00:00 18.8 6 Sudeste 12 Sudeste 0 -- -- 81
2020-08-25 00:00:00 18.9 6 Sudeste 18 Este 0 -- -- 80
2020-08-24 23:00:00 19.2 8 Sudeste 17 Sudeste 0 -- -- 80
2020-08-24 22:00:00 19.7 10 Sudeste 24 Sudeste 0 -- -- 78
2020-08-24 21:00:00 20.8 14 Este 23 Este 0 -- -- 73
2020-08-24 20:00:00 23.2 8 Este 17 Este 0 -- -- 63
2020-08-24 19:00:00 24.3 8 Este 16 Este 0 -- -- 57
2020-08-24 18:00:00 24.2 10 Este 18 Este 0 -- -- 56
2020-08-24 17:00:00 24 11 Este 19 Nordeste 0 -- -- 59
2020-08-24 16:00:00 23.8 10 Este 17 Nordeste 0 -- -- 62
2020-08-24 15:00:00 23.4 9 Nordeste 15 Este 0 -- -- 63
2020-08-24 14:00:00 23.4 8 Nordeste 15 Nordeste 0 -- -- 63
2020-08-24 13:00:00 22.5 6 Nordeste 13 Norte 0 -- -- 66
2020-08-24 12:00:00 22.1 5 Norte 12 Noroeste 0 -- -- 68
2020-08-24 11:00:00 20.7 7 Oeste 12 Oeste 0 -- -- 76
2020-08-24 10:00:00 19.3 5 Oeste 10 Sudoeste 0 -- -- 82
2020-08-24 09:00:00 17.5 6 Oeste 12 Sudoeste 0 -- -- 90
2020-08-24 08:00:00 17 7 Sudoeste 13 Sudoeste 0.2 -- -- 91
2020-08-24 07:00:00 17.1 7 Oeste 13 Oeste 0.2 -- -- 91
2020-08-24 06:00:00 17.2 6 Sudoeste 11 Sudoeste 0 -- -- 90
2020-08-24 05:00:00 17.9 3 Sudoeste 13 Oeste 0.2 -- -- 84
2020-08-24 04:00:00 17.7 6 Oeste 10 Oeste 0 -- -- 83
2020-08-24 03:00:00 17.9 5 Oeste 8 Sudoeste 0 -- -- 81
2020-08-24 02:00:00 18.1 6 Oeste 9 Sudoeste 0 -- -- 80
2020-08-24 01:00:00 18.2 6 Sudoeste 8 Sudoeste 0 -- -- 79
2020-08-24 00:00:00 18.5 3 Sudoeste 7 Oeste 0 -- -- 78
2020-08-23 23:00:00 18.7 2 Oeste 5 Nordeste 0 -- -- 76
2020-08-23 22:00:00 19.2 3 Noroeste 7 Noroeste 0 -- -- 74
2020-08-23 21:00:00 20 0 Calma 9 Este 0 -- -- 72
2020-08-23 20:00:00 21 4 Nordeste 10 Nordeste 0 -- -- 71
2020-08-23 19:00:00 22.4 5 Nordeste 12 Norte 0 -- -- 64
2020-08-23 18:00:00 22.9 5 Norte 14 Noroeste 0 -- -- 63
2020-08-23 17:00:00 23.1 5 Norte 13 Norte 0 -- -- 64
2020-08-23 16:00:00 23.3 4 Norte 17 Nordeste 0 -- -- 63
2020-08-23 15:00:00 23.2 5 Norte 14 Noroeste 0 -- -- 63
2020-08-23 14:00:00 23 5 Norte 13 Norte 0 -- -- 67
2020-08-23 13:00:00 22.5 4 Noroeste 15 Norte 0 -- -- 68
2020-08-23 12:00:00 22.3 4 Norte 12 Nordeste 0 -- -- 66
2020-08-23 11:00:00 21.6 4 Noroeste 12 Norte 0 -- -- 70
2020-08-23 10:00:00 20.5 6 Oeste 11 Oeste 0 -- -- 71
2020-08-23 09:00:00 18.9 5 Sudoeste 14 Sudoeste 0 -- -- 80
2020-08-23 08:00:00 17.4 7 Sudoeste 13 Oeste 0 -- -- 85
2020-08-23 07:00:00 17.2 9 Oeste 14 Oeste 0 -- -- 86
2020-08-23 06:00:00 17.5 9 Oeste 13 Oeste 0 -- -- 85
2020-08-23 05:00:00 17.9 7 Oeste 14 Oeste 0 -- -- 84
2020-08-23 04:00:00 18.4 8 Sudoeste 13 Sudoeste 0 -- -- 84
2020-08-23 03:00:00 18.2 6 Oeste 12 Oeste 0 -- -- 85
2020-08-23 02:00:00 18.8 9 Oeste 15 Oeste 0 -- -- 84
2020-08-23 01:00:00 18.7 6 Oeste 14 Oeste 0 -- -- 84
2020-08-23 00:00:00 19.3 4 Sudoeste 9 Sudoeste 0 -- -- 81
2020-08-22 23:00:00 19.4 3 Sudoeste 5 Sudoeste 0 -- -- 80
2020-08-22 22:00:00 19.7 2 Noroeste 13 Oeste 0 -- -- 77
2020-08-22 21:00:00 20.1 6 Noroeste 13 Noroeste 0 -- -- 77
2020-08-22 20:00:00 20.6 3 Noroeste 13 Norte 0 -- -- 76
2020-08-22 19:00:00 21.3 3 Norte 11 Nordeste 0 -- -- 74
2020-08-22 18:00:00 21.6 4 Noroeste 15 Noroeste 0 -- -- 75
2020-08-22 17:00:00 20.3 6 Noroeste 23 Noroeste 0 -- -- 81
2020-08-22 16:00:00 20.9 8 Noroeste 20 Norte 0 -- -- 82
2020-08-22 15:00:00 21.5 9 Noroeste 19 Norte 0 -- -- 79
2020-08-22 14:00:00 23.1 6 Norte 17 Norte 0 -- -- 73
2020-08-22 13:00:00 22.8 5 Noroeste 13 Nordeste 0 -- -- 73
2020-08-22 12:00:00 22.9 6 Nordeste 12 Nordeste 0 -- -- 69
2020-08-22 11:00:00 22.2 5 Nordeste 9 Norte 0 -- -- 71
2020-08-22 10:00:00 21.6 5 Nordeste 8 Nordeste 0 -- -- 72
2020-08-22 09:00:00 20.3 4 Sudeste 10 Sur 0 -- -- 76
2020-08-22 08:00:00 18.9 5 Sur 7 Sur 0 -- -- 79
2020-08-22 07:00:00 18.7 5 Sur 7 Sur 0 -- -- 80
2020-08-22 06:00:00 18.5 4 Sur 8 Sur 0 -- -- 82
2020-08-22 05:00:00 18.3 4 Sur 7 Sur 0 -- -- 84
2020-08-22 04:00:00 18.5 3 Sur 6 Sudeste 0 -- -- 84
2020-08-22 03:00:00 18.7 3 Sur 8 Sur 0 -- -- 83
2020-08-22 02:00:00 19.1 4 Sur 8 Sur 0 -- -- 83
2020-08-22 01:00:00 19.2 2 Sudoeste 4 Sudoeste 0 -- -- 83
2020-08-22 00:00:00 19.3 3 Sur 8 Sur 0 -- -- 83
2020-08-21 23:00:00 19.4 6 Sur 11 Sur 0 -- -- 86
2020-08-21 22:00:00 19.2 6 Sur 9 Sur 0 -- -- 88
2020-08-21 21:00:00 19.4 4 Sur 10 Sudeste 0 -- -- 87
2020-08-21 20:00:00 19.7 5 Sudeste 10 Sudeste 0 -- -- 86
2020-08-21 19:00:00 20 7 Sudeste 20 Este 2.2 -- -- 88
2020-08-21 18:00:00 20.9 4 Este 13 Este 0 -- -- 80
2020-08-21 17:00:00 20.7 6 Sudeste 12 Sudeste 0 -- -- 81
2020-08-21 16:00:00 20.6 7 Sudeste 14 Este 0 -- -- 85
2020-08-21 15:00:00 21 5 Este 11 Norte 0.6 -- -- 88
2020-08-21 14:00:00 21.4 4 Este 11 Nordeste 0.4 -- -- 82
2020-08-21 13:00:00 21.7 3 Sudoeste 18 Noroeste 0 -- -- 79
2020-08-21 12:00:00 22.1 6 Oeste 14 Noroeste 0 -- -- 84
2020-08-21 11:00:00 22.7 2 Norte 10 Este 0 -- -- 87
2020-08-21 10:00:00 22.5 4 Noroeste 15 Noroeste 0 -- -- 88
2020-08-21 09:00:00 21.9 3 Noroeste 9 Noroeste 0 -- -- 88
2020-08-21 08:00:00 21.6 3 Oeste 13 Oeste 0 -- -- 90
2020-08-21 07:00:00 21.6 5 Noroeste 20 Noroeste 0 -- -- 90
2020-08-21 06:00:00 21.6 10 Noroeste 32 Noroeste 0 -- -- 90
2020-08-21 05:00:00 24.2 13 Noroeste 30 Oeste 0 -- -- 74
2020-08-21 04:00:00 24.8 6 Oeste 23 Oeste 0 -- -- 59
2020-08-21 03:00:00 24.3 8 Sudoeste 15 Sudoeste 0 -- -- 55
2020-08-21 02:00:00 24.4 4 Sur 15 Sur 0 -- -- 50
2020-08-21 01:00:00 24.1 10 Sur 14 Sur 0 -- -- 57
2020-08-21 00:00:00 23.6 7 Sudoeste 15 Sudoeste 0 -- -- 60